createdAt,value
2019-05-13T00:01:53.819Z,85.86
2019-05-13T00:05:06.934Z,85.83
2019-05-13T00:08:21.855Z,85.65
2019-05-13T00:11:35.958Z,86.00
2019-05-13T00:14:49.805Z,85.89
2019-05-13T00:18:04.139Z,86.15
2019-05-13T00:21:17.782Z,86.26
2019-05-13T00:24:33.817Z,86.21
2019-05-13T00:27:46.849Z,86.31
2019-05-13T00:31:00.345Z,85.92
2019-05-13T00:34:14.345Z,85.88
2019-05-13T00:37:28.101Z,85.54
2019-05-13T00:40:44.078Z,85.09
2019-05-13T00:43:56.970Z,85.14
2019-05-13T00:47:13.129Z,85.08
2019-05-13T00:50:26.354Z,85.28
2019-05-13T00:53:40.636Z,85.28
2019-05-13T00:56:54.787Z,85.65
2019-05-13T01:00:09.093Z,86.12
2019-05-13T01:03:26.326Z,86.36
2019-05-13T01:06:38.282Z,86.39
2019-05-13T01:10:47.985Z,86.24
2019-05-13T01:14:04.082Z,86.36
2019-05-13T01:17:17.479Z,86.33
2019-05-13T01:20:31.259Z,86.49
2019-05-13T01:23:44.747Z,86.69
2019-05-13T01:26:58.370Z,87.19
2019-05-13T01:30:13.332Z,87.03
2019-05-13T01:33:27.058Z,87.11
2019-05-13T01:36:40.559Z,87.06
2019-05-13T01:39:54.203Z,86.69
2019-05-13T01:43:07.640Z,86.94
2019-05-13T01:46:21.135Z,86.97
2019-05-13T01:49:34.955Z,87.35
2019-05-13T01:52:48.450Z,86.76
2019-05-13T01:56:03.857Z,86.53
2019-05-13T01:59:17.643Z,87.01
2019-05-13T02:02:33.169Z,86.76
2019-05-13T02:05:46.624Z,86.95
2019-05-13T02:09:00.120Z,87.20
2019-05-13T02:12:13.719Z,86.63
2019-05-13T02:15:27.209Z,86.69
2019-05-13T02:18:40.699Z,86.99
2019-05-13T02:21:54.432Z,87.29
2019-05-13T02:25:08.175Z,86.51
2019-05-13T02:28:24.318Z,86.48
2019-05-13T02:31:47.578Z,86.14
2019-05-13T02:34:53.410Z,86.76
2019-05-13T02:38:19.770Z,86.61
2019-05-13T02:41:23.097Z,86.77
2019-05-13T02:44:36.565Z,86.75
2019-05-13T02:47:52.188Z,86.56
2019-05-13T02:51:05.999Z,86.34
2019-05-13T02:54:22.713Z,86.74
2019-05-13T02:57:35.413Z,87.13
2019-05-13T03:00:53.138Z,86.64
2019-05-13T03:04:04.389Z,86.59
2019-05-13T03:07:17.912Z,86.65
2019-05-13T03:10:33.077Z,86.80
2019-05-13T03:13:47.068Z,87.20
2019-05-13T03:17:12.853Z,86.98
2019-05-13T03:20:24.861Z,87.07
2019-05-13T03:23:38.651Z,86.97
2019-05-13T03:26:53.406Z,86.88
2019-05-13T03:30:07.276Z,87.69
2019-05-13T03:33:27.527Z,87.41
2019-05-13T03:36:37.385Z,86.94
2019-05-13T03:39:52.490Z,86.87
2019-05-13T03:43:08.013Z,87.50
2019-05-13T03:46:22.947Z,87.92
2019-05-13T03:49:42.373Z,87.52
2019-05-13T03:52:55.704Z,87.71
2019-05-13T03:56:12.555Z,87.59
2019-05-13T03:59:25.790Z,87.74
2019-05-13T04:02:42.710Z,88.05
2019-05-13T04:05:55.069Z,88.01
2019-05-13T04:09:22.424Z,87.64
2019-05-13T04:12:28.430Z,88.00
2019-05-13T04:15:42.832Z,87.92
2019-05-13T04:18:55.983Z,87.45
2019-05-13T04:22:12.619Z,87.41
2019-05-13T04:25:25.273Z,87.48
2019-05-13T04:28:39.162Z,87.67
2019-05-13T04:31:53.374Z,86.92
2019-05-13T04:35:07.085Z,86.89
2019-05-13T04:38:22.733Z,86.96
2019-05-13T04:41:36.779Z,86.94
2019-05-13T04:44:53.246Z,86.64
2019-05-13T04:48:05.871Z,86.30
2019-05-13T04:51:22.641Z,86.07
2019-05-13T04:54:35.448Z,86.43
2019-05-13T04:57:48.942Z,86.76
2019-05-13T05:01:52.193Z,86.96
2019-05-13T05:05:05.186Z,86.71
2019-05-13T05:08:47.554Z,87.17
2019-05-13T05:17:05.675Z,87.17
2019-05-13T05:20:42.809Z,86.87
2019-05-13T05:24:16.359Z,87.19
2019-05-13T05:28:21.799Z,87.16
2019-05-13T05:31:53.043Z,87.19
2019-05-13T05:35:54.830Z,86.82
2019-05-13T05:39:22.654Z,86.62
2019-05-13T05:42:38.391Z,86.45
2019-05-13T05:45:52.681Z,86.25
2019-05-13T05:49:09.037Z,86.25
2019-05-13T05:52:25.436Z,86.15
2019-05-13T05:55:41.250Z,86.10
2019-05-13T05:58:57.568Z,85.72
2019-05-13T06:02:15.716Z,85.58
2019-05-13T06:05:31.860Z,85.45
2019-05-13T06:08:45.593Z,85.02
2019-05-13T06:12:01.737Z,84.99
2019-05-13T06:15:15.561Z,85.14
2019-05-13T06:18:29.623Z,84.45
2019-05-13T06:21:43.361Z,84.05
2019-05-13T06:24:56.980Z,82.67
2019-05-13T06:28:12.408Z,79.15
2019-05-13T06:31:26.715Z,76.98
2019-05-13T06:34:41.518Z,75.99
2019-05-13T06:37:55.975Z,73.24
2019-05-13T06:41:13.992Z,72.15
2019-05-13T06:44:24.975Z,70.03
2019-05-13T06:47:38.584Z,68.75
2019-05-13T06:50:52.277Z,67.88
2019-05-13T06:54:05.838Z,68.38
2019-05-13T06:57:21.909Z,66.34
2019-05-13T07:00:35.357Z,65.74
2019-05-13T07:03:51.659Z,64.73
2019-05-13T07:07:13.270Z,63.79
2019-05-13T07:10:21.661Z,62.02
2019-05-13T07:13:35.457Z,61.37
2019-05-13T07:16:49.168Z,61.51
2019-05-13T07:20:03.350Z,60.93
2019-05-13T07:23:16.891Z,63.19
2019-05-13T07:26:31.459Z,62.92
2019-05-13T07:29:45.327Z,60.92
2019-05-13T07:32:58.823Z,61.62
2019-05-13T07:36:12.862Z,59.12
2019-05-13T07:39:27.251Z,58.53
2019-05-13T07:42:41.884Z,56.36
2019-05-13T07:45:55.552Z,56.07
2019-05-13T07:49:09.038Z,54.13
2019-05-13T07:52:22.910Z,53.98
2019-05-13T07:55:36.516Z,53.82
2019-05-13T07:58:52.340Z,49.58
2019-05-13T08:02:05.499Z,50.54
2019-05-13T08:05:19.203Z,49.09
2019-05-13T08:08:32.695Z,46.18
2019-05-13T08:12:04.299Z,46.85
2019-05-13T08:15:03.102Z,44.90
2019-05-13T08:18:17.407Z,45.00
2019-05-13T08:21:32.211Z,44.68
2019-05-13T08:24:46.032Z,41.52
2019-05-13T08:28:01.878Z,41.07
2019-05-13T08:31:15.280Z,41.51
2019-05-13T08:34:29.186Z,40.35
2019-05-13T08:37:43.228Z,40.53
2019-05-13T08:40:57.160Z,40.54
2019-05-13T08:44:12.327Z,40.85
2019-05-13T08:47:26.321Z,38.52
2019-05-13T08:50:41.777Z,38.79
2019-05-13T08:53:55.919Z,37.95
2019-05-13T08:57:11.594Z,38.57
2019-05-13T09:00:47.316Z,39.80
2019-05-13T09:04:02.448Z,38.45
2019-05-13T09:07:16.747Z,36.85
2019-05-13T09:10:31.888Z,40.52
2019-05-13T09:13:45.478Z,40.36
2019-05-13T09:17:01.657Z,37.09
2019-05-13T09:20:14.626Z,37.63
2019-05-13T09:23:28.132Z,38.16
2019-05-13T09:26:42.200Z,36.88
2019-05-13T09:29:55.904Z,33.44
2019-05-13T09:33:11.431Z,35.44
2019-05-13T09:36:24.881Z,35.95
2019-05-13T09:39:41.268Z,34.79
2019-05-13T09:42:55.355Z,36.49
2019-05-13T09:46:11.713Z,34.95
2019-05-13T09:49:24.793Z,34.47
2019-05-13T09:52:39.711Z,34.28
2019-05-13T09:55:54.127Z,37.46
2019-05-13T09:59:07.638Z,37.11
2019-05-13T10:02:21.525Z,36.15
2019-05-13T10:05:35.519Z,36.01
2019-05-13T10:08:49.013Z,35.20
2019-05-13T10:12:03.594Z,35.18
2019-05-13T10:15:17.414Z,37.05
2019-05-13T10:18:32.698Z,35.79
2019-05-13T10:21:46.757Z,34.63
2019-05-13T10:25:02.545Z,34.14
2019-05-13T10:28:16.639Z,35.87
2019-05-13T10:31:31.388Z,32.24
2019-05-13T10:34:46.087Z,35.34
2019-05-13T10:38:03.741Z,37.58
2019-05-13T10:41:15.575Z,31.97
2019-05-13T10:44:29.857Z,35.09
2019-05-13T10:47:43.962Z,34.26
2019-05-13T10:50:57.463Z,31.61
2019-05-13T10:54:11.145Z,30.73
2019-05-13T10:57:24.752Z,30.57
2019-05-13T11:00:48.025Z,31.38
2019-05-13T11:04:02.675Z,31.10
2019-05-13T11:07:16.329Z,34.11
2019-05-13T11:10:32.607Z,30.37
2019-05-13T11:13:55.282Z,29.27
2019-05-13T11:17:01.836Z,31.30
2019-05-13T11:20:15.501Z,30.43
2019-05-13T11:23:31.917Z,30.43
2019-05-13T11:26:44.486Z,32.93
2019-05-13T11:29:57.978Z,29.39
2019-05-13T11:33:11.588Z,28.51
2019-05-13T11:36:25.675Z,26.54
2019-05-13T11:39:39.487Z,24.86
2019-05-13T11:42:53.108Z,27.21
2019-05-13T11:46:06.696Z,27.24
2019-05-13T11:49:20.403Z,27.04
2019-05-13T11:52:33.937Z,29.75
2019-05-13T11:55:47.424Z,25.15
2019-05-13T11:59:04.207Z,26.38
2019-05-13T12:02:16.677Z,22.95
2019-05-13T12:05:32.636Z,25.63
2019-05-13T12:08:52.094Z,27.10
2019-05-13T12:12:03.318Z,26.96
2019-05-13T12:16:36.866Z,27.44
2019-05-13T12:19:53.997Z,29.29
2019-05-13T12:23:06.305Z,28.25
2019-05-13T12:26:23.466Z,25.97
2019-05-13T12:29:35.500Z,25.25
2019-05-13T12:32:51.361Z,22.47
2019-05-13T12:36:04.799Z,25.53
2019-05-13T12:39:18.530Z,25.08
2019-05-13T12:42:33.759Z,25.13
2019-05-13T12:45:47.512Z,28.45
2019-05-13T12:49:03.826Z,24.57
2019-05-13T12:52:16.816Z,27.36
2019-05-13T12:55:33.180Z,21.97
2019-05-13T12:58:46.606Z,24.63
2019-05-13T13:02:02.925Z,24.97
2019-05-13T13:05:20.261Z,24.93
2019-05-13T13:08:43.025Z,25.47
2019-05-13T13:11:46.760Z,23.47
2019-05-13T13:15:20.365Z,22.66
2019-05-13T13:18:15.860Z,21.68
2019-05-13T13:21:34.287Z,20.91
2019-05-13T13:24:51.692Z,20.91
2019-05-13T13:28:10.829Z,20.59
2019-05-13T13:31:15.767Z,21.42
2019-05-13T13:34:33.432Z,18.63
2019-05-13T13:37:45.796Z,23.38
2019-05-13T13:41:03.022Z,20.00
2019-05-13T13:44:15.285Z,21.59
2019-05-13T13:47:28.803Z,21.96
2019-05-13T13:53:57.725Z,21.73
2019-05-13T13:57:13.507Z,21.38
2019-05-13T14:00:38.631Z,18.88
2019-05-13T14:03:46.092Z,22.74
2019-05-13T14:06:58.943Z,20.76
2019-05-13T14:10:14.627Z,19.80
2019-05-13T14:13:28.313Z,20.09
2019-05-13T14:16:43.508Z,22.24
2019-05-13T14:19:58.385Z,23.04
2019-05-13T14:23:12.745Z,22.51
2019-05-13T14:26:26.593Z,20.39
2019-05-13T14:29:45.983Z,21.94
2019-05-13T14:32:55.830Z,20.71
2019-05-13T14:36:12.125Z,22.49
2019-05-13T14:39:25.393Z,21.43
2019-05-13T14:42:39.140Z,21.47
2019-05-13T14:45:52.880Z,20.54
2019-05-13T14:49:06.518Z,20.85
2019-05-13T14:52:22.205Z,20.85
2019-05-13T14:55:35.839Z,24.49
2019-05-13T14:58:52.077Z,24.57
2019-05-13T15:02:05.434Z,22.71
2019-05-13T15:05:21.905Z,23.18
2019-05-13T15:08:34.754Z,26.54
2019-05-13T15:11:48.265Z,25.64
2019-05-13T15:15:02.082Z,27.13
2019-05-13T15:18:16.109Z,26.88
2019-05-13T15:21:31.907Z,24.62
2019-05-13T15:24:45.601Z,23.73
2019-05-13T15:27:59.259Z,25.58
2019-05-13T15:31:13.033Z,25.20
2019-05-13T15:34:26.545Z,28.18
2019-05-13T15:37:41.813Z,26.41
2019-05-13T15:40:55.663Z,25.59
2019-05-13T15:44:11.404Z,25.17
2019-05-13T15:47:26.934Z,24.82
2019-05-13T15:50:42.176Z,25.30
2019-05-13T15:53:57.240Z,24.71
2019-05-13T15:57:11.886Z,23.88
2019-05-13T16:00:26.006Z,24.93
2019-05-13T16:03:41.571Z,24.24
2019-05-13T16:06:55.403Z,25.12
2019-05-13T16:10:11.339Z,23.45
2019-05-13T16:13:24.976Z,23.18
2019-05-13T16:16:41.439Z,24.14
2019-05-13T16:19:54.115Z,24.15
2019-05-13T16:23:07.815Z,20.99
2019-05-13T16:26:22.676Z,20.96
2019-05-13T16:29:36.374Z,21.37
2019-05-13T16:32:52.078Z,21.67
2019-05-13T16:36:06.099Z,21.86
2019-05-13T16:39:21.311Z,20.55
2019-05-13T16:42:35.021Z,19.38
2019-05-13T16:45:48.526Z,19.12
2019-05-13T16:49:02.145Z,20.94
2019-05-13T16:52:15.687Z,19.95
2019-05-13T16:55:29.616Z,20.04
2019-05-13T16:58:43.223Z,18.35
2019-05-13T17:01:57.053Z,19.00
2019-05-13T17:05:12.091Z,17.42
2019-05-13T17:08:25.983Z,17.36
2019-05-13T17:11:41.527Z,17.66
2019-05-13T17:15:02.971Z,17.78
2019-05-13T17:18:16.492Z,16.18
2019-05-13T17:21:31.672Z,16.96
2019-05-13T17:24:45.763Z,18.43
2019-05-13T17:27:59.306Z,17.74
2019-05-13T17:31:12.928Z,19.12
2019-05-13T17:34:26.535Z,18.46
2019-05-13T17:37:42.128Z,18.46
2019-05-13T17:40:55.824Z,17.96
2019-05-13T17:44:11.452Z,18.06
2019-05-13T17:47:24.875Z,18.74
2019-05-13T17:50:38.572Z,19.80
2019-05-13T17:53:52.251Z,19.31
2019-05-13T17:57:06.492Z,20.04
2019-05-13T18:00:21.568Z,19.54
2019-05-13T18:03:35.339Z,19.62
2019-05-13T18:07:08.802Z,21.68
2019-05-13T18:10:22.733Z,23.15
2019-05-13T18:13:36.400Z,27.62
2019-05-13T18:16:50.075Z,30.10
2019-05-13T18:20:03.990Z,28.40
2019-05-13T18:23:17.627Z,29.73
2019-05-13T18:26:32.013Z,34.34
2019-05-13T18:29:45.596Z,31.43
2019-05-13T18:33:01.265Z,32.53
2019-05-13T18:36:15.305Z,35.72
2019-05-13T18:39:29.157Z,35.41
2019-05-13T18:42:43.172Z,38.54
2019-05-13T18:45:56.975Z,41.43
2019-05-13T18:49:12.002Z,41.33
2019-05-13T18:52:26.275Z,41.50
2019-05-13T18:55:41.598Z,42.55
2019-05-13T18:58:55.808Z,45.00
2019-05-13T19:02:12.038Z,46.34
2019-05-13T19:05:25.949Z,47.52
2019-05-13T19:08:41.354Z,47.33
2019-05-13T19:11:55.834Z,49.11
2019-05-13T19:15:11.347Z,50.61
2019-05-13T19:18:25.217Z,51.08
2019-05-13T19:21:38.794Z,51.23
2019-05-13T19:24:52.412Z,52.75
2019-05-13T19:28:05.981Z,54.07
2019-05-13T19:31:21.962Z,54.38
2019-05-13T19:34:35.823Z,55.02
2019-05-13T19:37:51.568Z,57.92
2019-05-13T19:41:05.195Z,56.70
2019-05-13T19:44:18.845Z,57.03
2019-05-13T19:47:32.620Z,56.68
2019-05-13T19:50:47.148Z,58.08
2019-05-13T19:54:01.228Z,58.69
2019-05-13T19:57:15.155Z,60.11
2019-05-13T20:00:28.789Z,59.90
2019-05-13T20:03:42.535Z,60.18
2019-05-13T20:06:56.508Z,61.63
2019-05-13T20:10:11.879Z,61.60
2019-05-13T20:13:25.845Z,61.89
2019-05-13T20:16:41.534Z,62.81
2019-05-13T20:19:54.851Z,62.61
2019-05-13T20:23:08.504Z,62.78
2019-05-13T20:26:22.145Z,64.16
2019-05-13T20:29:35.903Z,64.18
2019-05-13T20:32:51.502Z,63.92
2019-05-13T20:36:05.105Z,65.05
2019-05-13T20:39:18.985Z,64.92
2019-05-13T20:42:32.644Z,65.11
2019-05-13T20:45:46.384Z,65.86
2019-05-13T20:49:00.653Z,65.69
2019-05-13T20:52:15.470Z,66.93
2019-05-13T20:55:29.169Z,66.96
2019-05-13T20:58:42.710Z,67.89
2019-05-13T21:01:56.353Z,67.60
2019-05-13T21:05:12.140Z,67.40
2019-05-13T21:08:26.208Z,68.19
2019-05-13T21:11:41.755Z,68.74
2019-05-13T21:16:42.211Z,69.32
2019-05-13T21:20:01.148Z,69.01
2019-05-13T21:23:11.483Z,69.64
2019-05-13T21:26:25.023Z,69.64
2019-05-13T21:29:38.667Z,70.16
2019-05-13T21:32:52.531Z,70.97
2019-05-13T21:36:06.285Z,70.58
2019-05-13T21:39:21.395Z,71.50
2019-05-13T21:42:35.309Z,71.16
2019-05-13T21:45:49.052Z,72.09
2019-05-13T21:49:02.857Z,71.49
2019-05-13T21:52:16.355Z,72.23
2019-05-13T21:55:30.206Z,72.44
2019-05-13T21:58:43.838Z,72.65
2019-05-13T22:01:57.831Z,73.22
2019-05-13T22:05:11.827Z,73.61
2019-05-13T22:08:25.761Z,73.39
2019-05-13T22:11:41.789Z,73.94
2019-05-13T22:14:55.319Z,73.61
2019-05-13T22:18:11.160Z,74.49
2019-05-13T22:21:24.504Z,74.46
2019-05-13T22:24:38.043Z,74.31
2019-05-13T22:27:52.043Z,73.92
2019-05-13T22:31:06.501Z,74.03
2019-05-13T22:34:21.201Z,74.71
2019-05-13T22:37:34.920Z,74.69
2019-05-13T22:40:48.553Z,75.17
2019-05-13T22:44:02.258Z,75.86
2019-05-13T22:47:15.990Z,75.19
2019-05-13T22:50:31.030Z,74.95
2019-05-13T22:53:44.761Z,74.80
2019-05-13T22:56:58.306Z,75.62
2019-05-13T23:00:12.491Z,75.67
2019-05-13T23:03:26.421Z,75.75
2019-05-13T23:06:39.946Z,76.04
2019-05-13T23:09:53.780Z,76.22
2019-05-13T23:13:07.345Z,75.84
2019-05-13T23:16:22.194Z,76.08
2019-05-13T23:19:35.923Z,75.70
2019-05-13T23:22:51.712Z,76.29
2019-05-13T23:26:05.068Z,76.02
2019-05-13T23:29:18.601Z,75.96
2019-05-13T23:32:32.223Z,76.57
2019-05-13T23:35:46.043Z,77.40
2019-05-13T23:39:01.016Z,77.43
2019-05-13T23:42:14.597Z,76.81
2019-05-13T23:45:28.115Z,76.35
2019-05-13T23:48:41.707Z,76.20
2019-05-13T23:51:55.209Z,76.36
2019-05-13T23:55:11.032Z,76.68
2019-05-13T23:58:25.433Z,76.68
